sensor_id;sensor_type;location;lat;lon;timestamp;P1;durP1;ratioP1;P2;durP2;ratioP2
34204;SDS011;20471;49.680;20.074;2023-05-23T00:00:37;9.70;;;7.20;;
34204;SDS011;20471;49.680;20.074;2023-05-23T00:03:25;10.30;;;6.80;;
34204;SDS011;20471;49.680;20.074;2023-05-23T00:05:56;10.00;;;7.00;;
34204;SDS011;20471;49.680;20.074;2023-05-23T00:08:25;8.90;;;7.00;;
34204;SDS011;20471;49.680;20.074;2023-05-23T00:10:53;12.70;;;6.80;;
34204;SDS011;20471;49.680;20.074;2023-05-23T00:13:21;12.30;;;7.10;;
34204;SDS011;20471;49.680;20.074;2023-05-23T00:15:49;10.30;;;7.50;;
34204;SDS011;20471;49.680;20.074;2023-05-23T00:18:17;11.20;;;7.30;;
34204;SDS011;20471;49.680;20.074;2023-05-23T00:20:45;9.40;;;7.20;;
34204;SDS011;20471;49.680;20.074;2023-05-23T00:23:13;11.20;;;7.00;;
34204;SDS011;20471;49.680;20.074;2023-05-23T00:25:44;9.90;;;6.80;;
34204;SDS011;20471;49.680;20.074;2023-05-23T00:28:18;10.10;;;6.40;;
34204;SDS011;20471;49.680;20.074;2023-05-23T00:30:46;9.20;;;6.10;;
34204;SDS011;20471;49.680;20.074;2023-05-23T00:33:15;10.70;;;6.80;;
34204;SDS011;20471;49.680;20.074;2023-05-23T00:35:47;11.50;;;6.40;;
34204;SDS011;20471;49.680;20.074;2023-05-23T00:38:15;10.00;;;6.90;;
34204;SDS011;20471;49.680;20.074;2023-05-23T00:40:43;8.40;;;6.10;;
34204;SDS011;20471;49.680;20.074;2023-05-23T00:43:11;8.50;;;5.80;;
34204;SDS011;20471;49.680;20.074;2023-05-23T00:45:39;12.40;;;6.70;;
34204;SDS011;20471;49.680;20.074;2023-05-23T00:48:07;10.80;;;6.70;;
34204;SDS011;20471;49.680;20.074;2023-05-23T00:50:36;7.70;;;6.30;;
34204;SDS011;20471;49.680;20.074;2023-05-23T00:53:04;10.90;;;6.60;;
34204;SDS011;20471;49.680;20.074;2023-05-23T00:55:32;8.00;;;6.20;;
34204;SDS011;20471;49.680;20.074;2023-05-23T00:58:01;9.20;;;6.90;;
34204;SDS011;20471;49.680;20.074;2023-05-23T01:00:29;9.10;;;6.50;;
34204;SDS011;20471;49.680;20.074;2023-05-23T01:02:57;10.20;;;6.60;;
34204;SDS011;20471;49.680;20.074;2023-05-23T01:05:26;8.10;;;6.60;;
34204;SDS011;20471;49.680;20.074;2023-05-23T01:07:54;12.70;;;6.60;;
34204;SDS011;20471;49.680;20.074;2023-05-23T01:10:24;8.70;;;7.10;;
34204;SDS011;20471;49.680;20.074;2023-05-23T01:15:35;8.60;;;6.60;;
34204;SDS011;20471;49.680;20.074;2023-05-23T01:18:11;10.90;;;7.60;;
34204;SDS011;20471;49.680;20.074;2023-05-23T01:20:52;10.50;;;6.80;;
34204;SDS011;20471;49.680;20.074;2023-05-23T01:23:36;7.80;;;6.50;;
34204;SDS011;20471;49.680;20.074;2023-05-23T01:29:23;8.90;;;6.90;;
34204;SDS011;20471;49.680;20.074;2023-05-23T01:31:56;11.70;;;7.10;;
34204;SDS011;20471;49.680;20.074;2023-05-23T01:34:25;8.60;;;6.20;;
34204;SDS011;20471;49.680;20.074;2023-05-23T01:36:53;11.20;;;6.70;;
34204;SDS011;20471;49.680;20.074;2023-05-23T01:39:22;10.20;;;7.20;;
34204;SDS011;20471;49.680;20.074;2023-05-23T01:41:50;10.10;;;7.90;;
34204;SDS011;20471;49.680;20.074;2023-05-23T01:44:20;11.30;;;7.50;;
34204;SDS011;20471;49.680;20.074;2023-05-23T01:46:49;8.30;;;6.80;;
34204;SDS011;20471;49.680;20.074;2023-05-23T01:49:17;9.30;;;6.70;;
34204;SDS011;20471;49.680;20.074;2023-05-23T01:51:47;11.20;;;6.70;;
34204;SDS011;20471;49.680;20.074;2023-05-23T01:54:15;12.20;;;8.00;;
34204;SDS011;20471;49.680;20.074;2023-05-23T01:56:45;9.60;;;6.80;;
34204;SDS011;20471;49.680;20.074;2023-05-23T01:59:15;10.10;;;6.80;;
34204;SDS011;20471;49.680;20.074;2023-05-23T02:01:43;9.20;;;7.10;;
34204;SDS011;20471;49.680;20.074;2023-05-23T02:04:11;10.60;;;7.30;;
34204;SDS011;20471;49.680;20.074;2023-05-23T02:06:40;9.30;;;7.00;;
34204;SDS011;20471;49.680;20.074;2023-05-23T02:09:08;9.80;;;7.20;;
34204;SDS011;20471;49.680;20.074;2023-05-23T02:11:36;11.80;;;7.10;;
34204;SDS011;20471;49.680;20.074;2023-05-23T02:14:04;11.40;;;7.10;;
34204;SDS011;20471;49.680;20.074;2023-05-23T02:16:33;8.80;;;6.40;;
34204;SDS011;20471;49.680;20.074;2023-05-23T02:19:01;11.30;;;7.20;;
34204;SDS011;20471;49.680;20.074;2023-05-23T02:21:30;10.00;;;6.60;;
34204;SDS011;20471;49.680;20.074;2023-05-23T02:23:58;10.50;;;6.50;;
34204;SDS011;20471;49.680;20.074;2023-05-23T02:26:26;9.90;;;7.20;;
34204;SDS011;20471;49.680;20.074;2023-05-23T02:28:54;9.30;;;6.80;;
34204;SDS011;20471;49.680;20.074;2023-05-23T02:31:22;10.10;;;6.80;;
34204;SDS011;20471;49.680;20.074;2023-05-23T02:33:50;7.70;;;6.50;;
34204;SDS011;20471;49.680;20.074;2023-05-23T02:36:19;9.40;;;7.20;;
34204;SDS011;20471;49.680;20.074;2023-05-23T02:38:47;12.00;;;7.40;;
34204;SDS011;20471;49.680;20.074;2023-05-23T02:41:15;9.90;;;7.20;;
34204;SDS011;20471;49.680;20.074;2023-05-23T02:43:46;11.40;;;7.20;;
34204;SDS011;20471;49.680;20.074;2023-05-23T02:46:14;15.20;;;7.60;;
34204;SDS011;20471;49.680;20.074;2023-05-23T02:48:42;10.40;;;7.30;;
34204;SDS011;20471;49.680;20.074;2023-05-23T02:51:10;12.50;;;8.10;;
34204;SDS011;20471;49.680;20.074;2023-05-23T02:53:39;12.90;;;7.30;;
34204;SDS011;20471;49.680;20.074;2023-05-23T02:56:07;9.90;;;7.30;;
34204;SDS011;20471;49.680;20.074;2023-05-23T02:58:35;9.80;;;7.20;;
34204;SDS011;20471;49.680;20.074;2023-05-23T03:01:05;9.20;;;6.80;;
34204;SDS011;20471;49.680;20.074;2023-05-23T03:03:33;11.90;;;7.40;;
34204;SDS011;20471;49.680;20.074;2023-05-23T03:06:01;9.20;;;7.30;;
34204;SDS011;20471;49.680;20.074;2023-05-23T03:08:30;12.10;;;7.10;;
34204;SDS011;20471;49.680;20.074;2023-05-23T03:10:58;10.00;;;6.80;;
34204;SDS011;20471;49.680;20.074;2023-05-23T03:13:27;11.20;;;7.90;;
34204;SDS011;20471;49.680;20.074;2023-05-23T03:15:55;9.70;;;7.30;;
34204;SDS011;20471;49.680;20.074;2023-05-23T03:18:23;8.80;;;6.90;;
34204;SDS011;20471;49.680;20.074;2023-05-23T03:20:51;9.90;;;7.30;;
34204;SDS011;20471;49.680;20.074;2023-05-23T03:23:19;9.80;;;7.70;;
34204;SDS011;20471;49.680;20.074;2023-05-23T03:25:47;11.10;;;7.90;;
34204;SDS011;20471;49.680;20.074;2023-05-23T03:28:16;11.40;;;7.50;;
34204;SDS011;20471;49.680;20.074;2023-05-23T03:30:43;10.70;;;7.40;;
34204;SDS011;20471;49.680;20.074;2023-05-23T03:33:11;12.10;;;7.10;;
34204;SDS011;20471;49.680;20.074;2023-05-23T03:35:40;9.00;;;7.00;;
34204;SDS011;20471;49.680;20.074;2023-05-23T03:38:08;11.80;;;7.10;;
34204;SDS011;20471;49.680;20.074;2023-05-23T03:40:36;8.40;;;7.00;;
34204;SDS011;20471;49.680;20.074;2023-05-23T03:43:04;11.20;;;7.50;;
34204;SDS011;20471;49.680;20.074;2023-05-23T03:45:33;14.70;;;8.20;;
34204;SDS011;20471;49.680;20.074;2023-05-23T03:48:01;9.50;;;7.90;;
34204;SDS011;20471;49.680;20.074;2023-05-23T03:50:30;11.10;;;7.80;;
34204;SDS011;20471;49.680;20.074;2023-05-23T03:52:58;10.20;;;7.90;;
34204;SDS011;20471;49.680;20.074;2023-05-23T03:55:26;15.40;;;8.20;;
34204;SDS011;20471;49.680;20.074;2023-05-23T03:57:57;18.00;;;9.80;;
34204;SDS011;20471;49.680;20.074;2023-05-23T04:00:25;12.80;;;9.60;;
34204;SDS011;20471;49.680;20.074;2023-05-23T04:02:53;14.70;;;10.70;;
34204;SDS011;20471;49.680;20.074;2023-05-23T04:05:22;18.90;;;12.10;;
34204;SDS011;20471;49.680;20.074;2023-05-23T04:07:51;17.70;;;12.20;;
34204;SDS011;20471;49.680;20.074;2023-05-23T04:10:19;20.70;;;12.00;;
34204;SDS011;20471;49.680;20.074;2023-05-23T04:12:47;15.00;;;9.90;;
34204;SDS011;20471;49.680;20.074;2023-05-23T04:15:15;18.60;;;10.00;;
34204;SDS011;20471;49.680;20.074;2023-05-23T04:17:43;13.70;;;9.70;;
34204;SDS011;20471;49.680;20.074;2023-05-23T04:20:11;13.80;;;8.80;;
34204;SDS011;20471;49.680;20.074;2023-05-23T04:22:39;12.60;;;8.60;;
34204;SDS011;20471;49.680;20.074;2023-05-23T04:25:07;17.80;;;9.70;;
34204;SDS011;20471;49.680;20.074;2023-05-23T04:27:36;12.40;;;9.10;;
34204;SDS011;20471;49.680;20.074;2023-05-23T04:30:06;14.40;;;8.80;;
34204;SDS011;20471;49.680;20.074;2023-05-23T04:32:35;13.10;;;9.30;;
34204;SDS011;20471;49.680;20.074;2023-05-23T04:35:04;16.40;;;8.60;;
34204;SDS011;20471;49.680;20.074;2023-05-23T04:37:32;14.80;;;9.70;;
34204;SDS011;20471;49.680;20.074;2023-05-23T04:40:00;14.10;;;9.50;;
34204;SDS011;20471;49.680;20.074;2023-05-23T04:42:29;13.40;;;9.40;;
34204;SDS011;20471;49.680;20.074;2023-05-23T04:44:59;15.60;;;9.00;;
34204;SDS011;20471;49.680;20.074;2023-05-23T04:47:27;16.60;;;9.20;;
34204;SDS011;20471;49.680;20.074;2023-05-23T04:52:29;14.60;;;8.30;;
34204;SDS011;20471;49.680;20.074;2023-05-23T04:54:59;15.20;;;10.20;;
34204;SDS011;20471;49.680;20.074;2023-05-23T04:57:27;16.50;;;9.70;;
34204;SDS011;20471;49.680;20.074;2023-05-23T04:59:55;17.00;;;9.60;;
34204;SDS011;20471;49.680;20.074;2023-05-23T05:02:23;14.10;;;10.50;;
34204;SDS011;20471;49.680;20.074;2023-05-23T05:04:52;12.60;;;10.20;;
34204;SDS011;20471;49.680;20.074;2023-05-23T05:07:20;18.20;;;10.40;;
34204;SDS011;20471;49.680;20.074;2023-05-23T05:09:48;14.40;;;9.70;;
34204;SDS011;20471;49.680;20.074;2023-05-23T05:12:16;13.60;;;9.20;;
34204;SDS011;20471;49.680;20.074;2023-05-23T05:14:44;17.20;;;9.10;;
34204;SDS011;20471;49.680;20.074;2023-05-23T05:17:12;19.30;;;8.90;;
34204;SDS011;20471;49.680;20.074;2023-05-23T05:19:44;15.80;;;9.00;;
34204;SDS011;20471;49.680;20.074;2023-05-23T05:22:12;19.50;;;9.80;;
34204;SDS011;20471;49.680;20.074;2023-05-23T05:24:41;17.30;;;8.80;;
34204;SDS011;20471;49.680;20.074;2023-05-23T05:27:09;13.20;;;8.80;;
34204;SDS011;20471;49.680;20.074;2023-05-23T05:29:37;22.70;;;10.80;;
34204;SDS011;20471;49.680;20.074;2023-05-23T05:32:05;13.20;;;9.80;;
34204;SDS011;20471;49.680;20.074;2023-05-23T05:34:35;15.10;;;9.40;;
34204;SDS011;20471;49.680;20.074;2023-05-23T05:37:03;17.60;;;9.90;;
34204;SDS011;20471;49.680;20.074;2023-05-23T05:39:31;14.20;;;9.20;;
34204;SDS011;20471;49.680;20.074;2023-05-23T05:41:59;13.30;;;8.50;;
34204;SDS011;20471;49.680;20.074;2023-05-23T05:44:29;12.90;;;8.80;;
34204;SDS011;20471;49.680;20.074;2023-05-23T05:46:57;15.20;;;8.50;;
34204;SDS011;20471;49.680;20.074;2023-05-23T05:49:25;14.40;;;8.20;;
34204;SDS011;20471;49.680;20.074;2023-05-23T05:51:53;15.20;;;9.10;;
34204;SDS011;20471;49.680;20.074;2023-05-23T05:54:21;14.90;;;8.50;;
34204;SDS011;20471;49.680;20.074;2023-05-23T05:56:50;11.40;;;8.70;;
34204;SDS011;20471;49.680;20.074;2023-05-23T05:59:18;15.70;;;8.70;;
34204;SDS011;20471;49.680;20.074;2023-05-23T06:01:46;14.70;;;8.70;;
34204;SDS011;20471;49.680;20.074;2023-05-23T06:04:16;16.00;;;8.90;;
34204;SDS011;20471;49.680;20.074;2023-05-23T06:06:44;13.90;;;8.70;;
34204;SDS011;20471;49.680;20.074;2023-05-23T06:09:12;15.60;;;8.00;;
34204;SDS011;20471;49.680;20.074;2023-05-23T06:11:41;12.60;;;8.10;;
34204;SDS011;20471;49.680;20.074;2023-05-23T06:14:09;15.00;;;8.80;;
34204;SDS011;20471;49.680;20.074;2023-05-23T06:16:37;13.70;;;8.40;;
34204;SDS011;20471;49.680;20.074;2023-05-23T06:19:05;13.10;;;8.00;;
34204;SDS011;20471;49.680;20.074;2023-05-23T06:21:33;11.80;;;8.10;;
34204;SDS011;20471;49.680;20.074;2023-05-23T06:24:01;16.50;;;8.10;;
34204;SDS011;20471;49.680;20.074;2023-05-23T06:26:30;13.10;;;7.60;;
34204;SDS011;20471;49.680;20.074;2023-05-23T06:28:58;15.40;;;7.50;;
34204;SDS011;20471;49.680;20.074;2023-05-23T06:31:27;11.40;;;7.50;;
34204;SDS011;20471;49.680;20.074;2023-05-23T06:33:55;14.90;;;7.50;;
34204;SDS011;20471;49.680;20.074;2023-05-23T06:36:23;13.70;;;7.20;;
34204;SDS011;20471;49.680;20.074;2023-05-23T06:38:51;12.30;;;7.70;;
34204;SDS011;20471;49.680;20.074;2023-05-23T06:41:19;13.90;;;7.20;;
34204;SDS011;20471;49.680;20.074;2023-05-23T06:43:48;10.90;;;6.50;;
34204;SDS011;20471;49.680;20.074;2023-05-23T06:46:16;14.40;;;7.60;;
34204;SDS011;20471;49.680;20.074;2023-05-23T06:48:44;14.90;;;7.50;;
34204;SDS011;20471;49.680;20.074;2023-05-23T06:51:12;14.30;;;7.40;;
34204;SDS011;20471;49.680;20.074;2023-05-23T06:53:40;13.20;;;7.00;;
34204;SDS011;20471;49.680;20.074;2023-05-23T06:56:08;9.00;;;6.60;;
34204;SDS011;20471;49.680;20.074;2023-05-23T06:58:36;10.70;;;7.00;;
34204;SDS011;20471;49.680;20.074;2023-05-23T07:01:04;11.00;;;6.50;;
34204;SDS011;20471;49.680;20.074;2023-05-23T07:03:33;12.20;;;6.40;;
34204;SDS011;20471;49.680;20.074;2023-05-23T07:06:03;9.70;;;6.30;;
34204;SDS011;20471;49.680;20.074;2023-05-23T07:08:32;10.20;;;6.40;;
34204;SDS011;20471;49.680;20.074;2023-05-23T07:11:00;9.40;;;6.30;;
34204;SDS011;20471;49.680;20.074;2023-05-23T07:13:28;10.10;;;6.30;;
34204;SDS011;20471;49.680;20.074;2023-05-23T07:15:57;11.20;;;6.50;;
34204;SDS011;20471;49.680;20.074;2023-05-23T07:18:25;8.40;;;5.80;;
34204;SDS011;20471;49.680;20.074;2023-05-23T07:20:53;11.10;;;6.60;;
34204;SDS011;20471;49.680;20.074;2023-05-23T07:23:22;7.80;;;6.30;;
34204;SDS011;20471;49.680;20.074;2023-05-23T07:25:51;11.00;;;6.30;;
34204;SDS011;20471;49.680;20.074;2023-05-23T07:28:19;9.90;;;6.40;;
34204;SDS011;20471;49.680;20.074;2023-05-23T07:30:47;12.10;;;5.90;;
34204;SDS011;20471;49.680;20.074;2023-05-23T07:33:16;8.70;;;6.00;;
34204;SDS011;20471;49.680;20.074;2023-05-23T07:35:44;9.00;;;5.90;;
34204;SDS011;20471;49.680;20.074;2023-05-23T07:38:12;9.90;;;5.90;;
34204;SDS011;20471;49.680;20.074;2023-05-23T07:40:40;10.70;;;5.60;;
34204;SDS011;20471;49.680;20.074;2023-05-23T07:43:08;10.40;;;6.10;;
34204;SDS011;20471;49.680;20.074;2023-05-23T07:45:36;12.00;;;5.90;;
34204;SDS011;20471;49.680;20.074;2023-05-23T07:48:04;10.70;;;5.60;;
34204;SDS011;20471;49.680;20.074;2023-05-23T07:50:33;10.70;;;5.70;;
34204;SDS011;20471;49.680;20.074;2023-05-23T07:53:01;11.10;;;5.10;;
34204;SDS011;20471;49.680;20.074;2023-05-23T07:55:29;7.30;;;5.10;;
34204;SDS011;20471;49.680;20.074;2023-05-23T07:57:57;7.40;;;5.50;;
34204;SDS011;20471;49.680;20.074;2023-05-23T08:00:26;7.50;;;5.00;;
34204;SDS011;20471;49.680;20.074;2023-05-23T08:02:54;8.80;;;4.90;;
34204;SDS011;20471;49.680;20.074;2023-05-23T08:05:23;6.80;;;4.80;;
34204;SDS011;20471;49.680;20.074;2023-05-23T08:07:51;6.70;;;4.70;;
34204;SDS011;20471;49.680;20.074;2023-05-23T08:10:20;7.70;;;4.20;;
34204;SDS011;20471;49.680;20.074;2023-05-23T08:12:48;9.80;;;4.70;;
34204;SDS011;20471;49.680;20.074;2023-05-23T08:15:16;6.70;;;4.50;;
34204;SDS011;20471;49.680;20.074;2023-05-23T08:17:45;6.00;;;4.40;;
34204;SDS011;20471;49.680;20.074;2023-05-23T08:20:13;9.20;;;4.80;;
34204;SDS011;20471;49.680;20.074;2023-05-23T08:22:41;6.60;;;4.50;;
34204;SDS011;20471;49.680;20.074;2023-05-23T08:25:10;6.60;;;4.50;;
34204;SDS011;20471;49.680;20.074;2023-05-23T08:27:38;7.00;;;4.10;;
34204;SDS011;20471;49.680;20.074;2023-05-23T08:30:06;6.20;;;4.20;;
34204;SDS011;20471;49.680;20.074;2023-05-23T08:32:35;5.50;;;4.40;;
34204;SDS011;20471;49.680;20.074;2023-05-23T08:35:03;7.50;;;4.50;;
34204;SDS011;20471;49.680;20.074;2023-05-23T08:37:32;7.00;;;4.50;;
34204;SDS011;20471;49.680;20.074;2023-05-23T08:40:00;6.90;;;4.00;;
34204;SDS011;20471;49.680;20.074;2023-05-23T08:42:29;7.40;;;4.50;;
34204;SDS011;20471;49.680;20.074;2023-05-23T08:44:57;11.60;;;4.80;;
34204;SDS011;20471;49.680;20.074;2023-05-23T08:47:28;6.70;;;4.40;;
34204;SDS011;20471;49.680;20.074;2023-05-23T08:50:01;7.20;;;4.50;;
34204;SDS011;20471;49.680;20.074;2023-05-23T08:52:32;5.70;;;4.30;;
34204;SDS011;20471;49.680;20.074;2023-05-23T08:55:02;5.00;;;4.20;;
34204;SDS011;20471;49.680;20.074;2023-05-23T08:57:31;7.70;;;4.60;;
34204;SDS011;20471;49.680;20.074;2023-05-23T09:00:00;7.30;;;4.40;;
34204;SDS011;20471;49.680;20.074;2023-05-23T09:02:30;10.00;;;4.10;;
34204;SDS011;20471;49.680;20.074;2023-05-23T09:05:00;8.10;;;5.00;;
34204;SDS011;20471;49.680;20.074;2023-05-23T09:07:28;7.30;;;4.20;;
34204;SDS011;20471;49.680;20.074;2023-05-23T09:09:56;5.60;;;4.30;;
34204;SDS011;20471;49.680;20.074;2023-05-23T09:12:24;7.60;;;4.10;;
34204;SDS011;20471;49.680;20.074;2023-05-23T09:14:53;6.90;;;4.40;;
34204;SDS011;20471;49.680;20.074;2023-05-23T09:17:21;6.50;;;4.30;;
34204;SDS011;20471;49.680;20.074;2023-05-23T09:19:49;5.90;;;4.00;;
34204;SDS011;20471;49.680;20.074;2023-05-23T09:22:22;7.80;;;4.10;;
34204;SDS011;20471;49.680;20.074;2023-05-23T09:24:54;6.70;;;3.70;;
34204;SDS011;20471;49.680;20.074;2023-05-23T09:27:23;6.50;;;3.50;;
34204;SDS011;20471;49.680;20.074;2023-05-23T09:29:51;4.00;;;3.40;;
34204;SDS011;20471;49.680;20.074;2023-05-23T09:32:20;5.80;;;3.80;;
34204;SDS011;20471;49.680;20.074;2023-05-23T09:37:29;6.90;;;4.20;;
34204;SDS011;20471;49.680;20.074;2023-05-23T09:39:58;6.70;;;3.80;;
34204;SDS011;20471;49.680;20.074;2023-05-23T09:42:31;6.70;;;4.10;;
34204;SDS011;20471;49.680;20.074;2023-05-23T09:45:01;6.80;;;4.30;;
34204;SDS011;20471;49.680;20.074;2023-05-23T09:47:29;12.20;;;4.40;;
34204;SDS011;20471;49.680;20.074;2023-05-23T09:49:57;7.10;;;4.20;;
34204;SDS011;20471;49.680;20.074;2023-05-23T09:52:26;5.80;;;4.00;;
34204;SDS011;20471;49.680;20.074;2023-05-23T09:54:54;8.00;;;4.60;;
34204;SDS011;20471;49.680;20.074;2023-05-23T09:57:22;5.50;;;3.70;;
34204;SDS011;20471;49.680;20.074;2023-05-23T09:59:51;6.60;;;4.40;;
34204;SDS011;20471;49.680;20.074;2023-05-23T10:05:35;6.10;;;4.00;;
34204;SDS011;20471;49.680;20.074;2023-05-23T10:08:13;5.30;;;4.40;;
34204;SDS011;20471;49.680;20.074;2023-05-23T10:13:24;6.10;;;4.00;;
34204;SDS011;20471;49.680;20.074;2023-05-23T10:16:05;5.70;;;3.70;;
34204;SDS011;20471;49.680;20.074;2023-05-23T10:18:43;7.30;;;3.80;;
34204;SDS011;20471;49.680;20.074;2023-05-23T10:23:46;7.10;;;3.80;;
34204;SDS011;20471;49.680;20.074;2023-05-23T10:26:15;8.90;;;4.10;;
34204;SDS011;20471;49.680;20.074;2023-05-23T10:28:45;7.20;;;4.00;;
34204;SDS011;20471;49.680;20.074;2023-05-23T10:31:16;5.30;;;3.80;;
34204;SDS011;20471;49.680;20.074;2023-05-23T10:33:47;10.70;;;3.70;;
34204;SDS011;20471;49.680;20.074;2023-05-23T10:36:24;10.70;;;4.60;;
34204;SDS011;20471;49.680;20.074;2023-05-23T10:39:08;5.60;;;4.20;;
34204;SDS011;20471;49.680;20.074;2023-05-23T10:41:48;5.70;;;3.90;;
34204;SDS011;20471;49.680;20.074;2023-05-23T10:44:29;7.60;;;4.20;;
34204;SDS011;20471;49.680;20.074;2023-05-23T10:46:59;4.70;;;4.20;;
34204;SDS011;20471;49.680;20.074;2023-05-23T10:49:37;8.50;;;3.90;;
34204;SDS011;20471;49.680;20.074;2023-05-23T10:52:10;7.20;;;4.40;;
34204;SDS011;20471;49.680;20.074;2023-05-23T10:54:43;5.50;;;4.40;;
34204;SDS011;20471;49.680;20.074;2023-05-23T10:57:19;5.20;;;3.80;;
34204;SDS011;20471;49.680;20.074;2023-05-23T10:59:54;5.90;;;4.50;;
34204;SDS011;20471;49.680;20.074;2023-05-23T11:02:26;4.10;;;3.70;;
34204;SDS011;20471;49.680;20.074;2023-05-23T11:05:17;5.80;;;4.00;;
34204;SDS011;20471;49.680;20.074;2023-05-23T11:08:05;5.60;;;4.50;;
34204;SDS011;20471;49.680;20.074;2023-05-23T11:13:23;5.40;;;4.80;;
34204;SDS011;20471;49.680;20.074;2023-05-23T11:15:52;10.10;;;4.50;;
34204;SDS011;20471;49.680;20.074;2023-05-23T11:18:26;6.00;;;4.20;;
34204;SDS011;20471;49.680;20.074;2023-05-23T11:20:54;5.20;;;4.00;;
34204;SDS011;20471;49.680;20.074;2023-05-23T11:23:39;5.90;;;4.60;;
34204;SDS011;20471;49.680;20.074;2023-05-23T11:28:58;9.70;;;4.30;;
34204;SDS011;20471;49.680;20.074;2023-05-23T11:31:29;7.60;;;4.60;;
34204;SDS011;20471;49.680;20.074;2023-05-23T11:33:57;5.40;;;4.30;;
34204;SDS011;20471;49.680;20.074;2023-05-23T11:36:25;5.10;;;4.20;;
34204;SDS011;20471;49.680;20.074;2023-05-23T11:38:54;7.60;;;4.80;;
34204;SDS011;20471;49.680;20.074;2023-05-23T11:41:22;5.60;;;4.40;;
34204;SDS011;20471;49.680;20.074;2023-05-23T11:43:50;6.20;;;4.50;;
34204;SDS011;20471;49.680;20.074;2023-05-23T11:46:19;5.80;;;4.50;;
34204;SDS011;20471;49.680;20.074;2023-05-23T11:48:47;6.20;;;4.30;;
34204;SDS011;20471;49.680;20.074;2023-05-23T11:51:15;7.90;;;5.00;;
34204;SDS011;20471;49.680;20.074;2023-05-23T11:53:45;6.20;;;4.70;;
34204;SDS011;20471;49.680;20.074;2023-05-23T11:56:14;5.90;;;4.50;;
34204;SDS011;20471;49.680;20.074;2023-05-23T11:58:43;10.40;;;5.10;;
34204;SDS011;20471;49.680;20.074;2023-05-23T12:01:11;8.00;;;5.10;;
34204;SDS011;20471;49.680;20.074;2023-05-23T12:03:47;5.60;;;4.30;;
34204;SDS011;20471;49.680;20.074;2023-05-23T12:06:17;7.50;;;4.60;;
34204;SDS011;20471;49.680;20.074;2023-05-23T12:08:46;4.80;;;4.30;;
34204;SDS011;20471;49.680;20.074;2023-05-23T12:11:14;8.20;;;4.70;;
34204;SDS011;20471;49.680;20.074;2023-05-23T12:13:43;7.60;;;4.60;;
34204;SDS011;20471;49.680;20.074;2023-05-23T12:16:12;6.10;;;4.20;;
34204;SDS011;20471;49.680;20.074;2023-05-23T12:18:41;4.90;;;4.40;;
34204;SDS011;20471;49.680;20.074;2023-05-23T12:21:10;5.50;;;4.30;;
34204;SDS011;20471;49.680;20.074;2023-05-23T12:23:55;7.80;;;5.00;;
34204;SDS011;20471;49.680;20.074;2023-05-23T12:26:50;5.60;;;4.50;;
34204;SDS011;20471;49.680;20.074;2023-05-23T12:29:21;5.10;;;4.50;;
34204;SDS011;20471;49.680;20.074;2023-05-23T12:31:56;7.30;;;4.90;;
34204;SDS011;20471;49.680;20.074;2023-05-23T12:34:25;8.80;;;4.80;;
34204;SDS011;20471;49.680;20.074;2023-05-23T12:36:56;10.00;;;5.10;;
34204;SDS011;20471;49.680;20.074;2023-05-23T12:39:26;6.70;;;5.40;;
34204;SDS011;20471;49.680;20.074;2023-05-23T12:42:05;10.40;;;4.80;;
34204;SDS011;20471;49.680;20.074;2023-05-23T12:44:35;5.50;;;4.80;;
34204;SDS011;20471;49.680;20.074;2023-05-23T12:47:03;9.50;;;5.10;;
34204;SDS011;20471;49.680;20.074;2023-05-23T12:49:31;6.00;;;4.30;;
34204;SDS011;20471;49.680;20.074;2023-05-23T12:52:00;5.00;;;4.40;;
34204;SDS011;20471;49.680;20.074;2023-05-23T12:54:28;5.90;;;4.90;;
34204;SDS011;20471;49.680;20.074;2023-05-23T12:56:56;17.50;;;4.20;;
34204;SDS011;20471;49.680;20.074;2023-05-23T12:59:24;12.40;;;2.80;;
34204;SDS011;20471;49.680;20.074;2023-05-23T13:01:52;11.40;;;2.70;;
34204;SDS011;20471;49.680;20.074;2023-05-23T13:04:22;4.40;;;2.50;;
34204;SDS011;20471;49.680;20.074;2023-05-23T13:06:50;6.10;;;2.80;;
34204;SDS011;20471;49.680;20.074;2023-05-23T13:09:18;4.70;;;3.00;;
34204;SDS011;20471;49.680;20.074;2023-05-23T13:11:46;2.90;;;2.00;;
34204;SDS011;20471;49.680;20.074;2023-05-23T13:14:14;6.80;;;2.20;;
34204;SDS011;20471;49.680;20.074;2023-05-23T13:16:42;2.80;;;2.30;;
34204;SDS011;20471;49.680;20.074;2023-05-23T13:19:11;5.00;;;2.60;;
34204;SDS011;20471;49.680;20.074;2023-05-23T13:21:39;4.70;;;2.70;;
34204;SDS011;20471;49.680;20.074;2023-05-23T13:24:07;4.10;;;2.90;;
34204;SDS011;20471;49.680;20.074;2023-05-23T13:26:35;7.70;;;2.80;;
34204;SDS011;20471;49.680;20.074;2023-05-23T13:29:04;4.10;;;2.60;;
34204;SDS011;20471;49.680;20.074;2023-05-23T13:31:32;4.80;;;2.50;;
34204;SDS011;20471;49.680;20.074;2023-05-23T13:34:00;2.80;;;2.60;;
34204;SDS011;20471;49.680;20.074;2023-05-23T13:36:29;6.20;;;2.70;;
34204;SDS011;20471;49.680;20.074;2023-05-23T13:38:57;7.10;;;3.20;;
34204;SDS011;20471;49.680;20.074;2023-05-23T13:41:25;5.50;;;3.20;;
34204;SDS011;20471;49.680;20.074;2023-05-23T13:43:53;4.10;;;3.20;;
34204;SDS011;20471;49.680;20.074;2023-05-23T13:46:21;4.40;;;2.80;;
34204;SDS011;20471;49.680;20.074;2023-05-23T13:48:49;5.00;;;3.10;;
34204;SDS011;20471;49.680;20.074;2023-05-23T13:51:17;5.10;;;3.00;;
34204;SDS011;20471;49.680;20.074;2023-05-23T13:53:45;7.40;;;3.60;;
34204;SDS011;20471;49.680;20.074;2023-05-23T13:56:14;4.80;;;3.50;;
34204;SDS011;20471;49.680;20.074;2023-05-23T13:58:42;8.40;;;4.30;;
34204;SDS011;20471;49.680;20.074;2023-05-23T14:01:12;6.80;;;4.30;;
34204;SDS011;20471;49.680;20.074;2023-05-23T14:03:40;6.20;;;4.60;;
34204;SDS011;20471;49.680;20.074;2023-05-23T14:06:08;6.10;;;4.20;;
34204;SDS011;20471;49.680;20.074;2023-05-23T14:08:37;12.00;;;5.40;;
34204;SDS011;20471;49.680;20.074;2023-05-23T14:11:05;8.10;;;4.40;;
34204;SDS011;20471;49.680;20.074;2023-05-23T14:13:33;5.60;;;3.90;;
34204;SDS011;20471;49.680;20.074;2023-05-23T14:16:01;6.40;;;3.30;;
34204;SDS011;20471;49.680;20.074;2023-05-23T14:18:29;6.40;;;3.50;;
34204;SDS011;20471;49.680;20.074;2023-05-23T14:20:57;6.10;;;3.90;;
34204;SDS011;20471;49.680;20.074;2023-05-23T14:23:25;5.60;;;3.80;;
34204;SDS011;20471;49.680;20.074;2023-05-23T14:25:53;10.00;;;4.00;;
34204;SDS011;20471;49.680;20.074;2023-05-23T14:28:21;4.30;;;3.60;;
34204;SDS011;20471;49.680;20.074;2023-05-23T14:30:50;6.50;;;3.80;;
34204;SDS011;20471;49.680;20.074;2023-05-23T14:33:18;5.70;;;3.60;;
34204;SDS011;20471;49.680;20.074;2023-05-23T14:35:46;4.80;;;3.60;;
34204;SDS011;20471;49.680;20.074;2023-05-23T14:38:16;6.90;;;4.00;;
34204;SDS011;20471;49.680;20.074;2023-05-23T14:40:44;4.40;;;3.50;;
34204;SDS011;20471;49.680;20.074;2023-05-23T14:43:14;7.80;;;3.90;;
34204;SDS011;20471;49.680;20.074;2023-05-23T14:45:42;7.20;;;4.10;;
34204;SDS011;20471;49.680;20.074;2023-05-23T14:48:10;4.60;;;3.70;;
34204;SDS011;20471;49.680;20.074;2023-05-23T14:50:39;7.50;;;3.90;;
34204;SDS011;20471;49.680;20.074;2023-05-23T14:53:07;5.00;;;3.90;;
34204;SDS011;20471;49.680;20.074;2023-05-23T14:55:36;7.60;;;4.00;;
34204;SDS011;20471;49.680;20.074;2023-05-23T14:58:04;7.60;;;4.10;;
34204;SDS011;20471;49.680;20.074;2023-05-23T15:00:32;10.30;;;4.40;;
34204;SDS011;20471;49.680;20.074;2023-05-23T15:03:00;7.80;;;3.90;;
34204;SDS011;20471;49.680;20.074;2023-05-23T15:05:30;6.70;;;3.90;;